createdAt,value
2022-11-14T00:03:59.135Z,99674.28
2022-11-14T00:09:19.794Z,99715.38
2022-11-14T00:14:40.438Z,99661.25
2022-11-14T00:20:00.888Z,99624.66
2022-11-14T00:25:21.603Z,99703.97
2022-11-14T00:30:42.367Z,99676.28
2022-11-14T00:36:03.201Z,99784.41
2022-11-14T00:41:24.270Z,99766.28
2022-11-14T00:46:44.926Z,99696.31
2022-11-14T00:52:05.725Z,99772.56
2022-11-14T00:57:26.245Z,99738.63
2022-11-14T01:02:46.898Z,99826.44
2022-11-14T01:08:07.668Z,99605.84
2022-11-14T01:13:32.327Z,99832.81
2022-11-14T01:18:52.926Z,99626.78
2022-11-14T01:24:13.840Z,99710.25
2022-11-14T01:29:34.684Z,99823.94
2022-11-14T01:34:55.328Z,99793.22
2022-11-14T01:40:16.430Z,99879.06
2022-11-14T01:45:49.352Z,99872.97
2022-11-14T01:51:36.536Z,99780.53
2022-11-14T01:57:00.232Z,99884.31
2022-11-14T02:02:24.858Z,99832.53
2022-11-14T02:07:45.795Z,99840.81
2022-11-14T02:13:07.338Z,99775.09
2022-11-14T02:18:40.352Z,99916.34
2022-11-14T02:24:01.194Z,99807.25
2022-11-14T02:29:21.596Z,99794.19
2022-11-14T02:34:42.499Z,99866.41
2022-11-14T02:40:03.249Z,99919.59
2022-11-14T02:45:24.776Z,99889.66
2022-11-14T02:50:45.640Z,99941.00
2022-11-14T02:56:07.005Z,99900.09
2022-11-14T03:01:27.713Z,99952.06
2022-11-14T03:06:48.405Z,99866.22
2022-11-14T03:12:08.858Z,99903.63
2022-11-14T03:17:32.813Z,99940.38
2022-11-14T03:22:53.894Z,99899.28
2022-11-14T03:28:14.521Z,99939.44
2022-11-14T03:33:36.118Z,99886.00
2022-11-14T03:38:56.908Z,99926.81
2022-11-14T03:44:18.037Z,99861.09
2022-11-14T03:49:38.908Z,99977.69
2022-11-14T03:54:59.777Z,99904.22
2022-11-14T04:00:20.650Z,99889.63
2022-11-14T04:05:45.450Z,99946.97
2022-11-14T04:11:06.449Z,99992.00
2022-11-14T04:16:26.931Z,99972.47
2022-11-14T04:21:47.731Z,99943.19
2022-11-14T04:27:08.684Z,99990.19
2022-11-14T04:32:29.470Z,99908.69
2022-11-14T04:37:50.518Z,99978.94
2022-11-14T04:43:11.051Z,99883.53
2022-11-14T04:48:32.021Z,99942.69
2022-11-14T04:53:52.939Z,99953.38
2022-11-14T04:59:19.639Z,99900.28
2022-11-14T05:04:41.442Z,100054.44
2022-11-14T05:10:02.267Z,100060.75
2022-11-14T05:15:23.085Z,99987.78
2022-11-14T05:20:44.169Z,100071.66
2022-11-14T05:26:07.206Z,100095.13
2022-11-14T05:31:27.756Z,100013.91
2022-11-14T05:36:48.463Z,100080.44
2022-11-14T05:42:09.126Z,100099.16
2022-11-14T05:47:30.008Z,100006.28
2022-11-14T05:52:50.695Z,100113.63
2022-11-14T05:58:11.419Z,100075.28
2022-11-14T06:03:36.051Z,100146.72
2022-11-14T06:08:56.740Z,100069.53
2022-11-14T06:14:17.523Z,100144.59
2022-11-14T06:19:38.252Z,100109.69
2022-11-14T06:24:58.683Z,100107.66
2022-11-14T06:30:19.620Z,100173.19
2022-11-14T06:35:40.618Z,100092.41
2022-11-14T06:41:12.461Z,100025.63
2022-11-14T06:46:33.578Z,100185.25
2022-11-14T06:51:54.530Z,100077.09
2022-11-14T06:57:15.100Z,100110.47
2022-11-14T07:02:35.627Z,100089.41
2022-11-14T07:07:57.902Z,100084.88
2022-11-14T07:13:18.726Z,100188.56
2022-11-14T07:18:39.346Z,100222.00
2022-11-14T07:24:00.341Z,100042.50
2022-11-14T07:29:21.203Z,100115.22
2022-11-14T07:34:41.775Z,100222.00
2022-11-14T07:40:02.355Z,100147.19
2022-11-14T07:45:22.822Z,100192.72
2022-11-14T07:50:43.967Z,100235.78
2022-11-14T07:56:06.404Z,100233.81
2022-11-14T08:01:26.846Z,100211.38
2022-11-14T08:06:47.754Z,100204.63
2022-11-14T08:12:08.494Z,100229.69
2022-11-14T08:17:29.386Z,100096.53
2022-11-14T08:22:53.319Z,100258.63
2022-11-14T08:28:14.028Z,100185.69
2022-11-14T08:33:34.886Z,100269.78
2022-11-14T08:39:01.484Z,100182.41
2022-11-14T08:44:22.373Z,100203.31
2022-11-14T08:49:42.968Z,100253.97
2022-11-14T08:55:03.977Z,100219.34
2022-11-14T09:00:25.136Z,100161.50
2022-11-14T09:05:51.706Z,100218.84
2022-11-14T09:11:14.350Z,100178.22
2022-11-14T09:16:38.510Z,100112.66
2022-11-14T09:21:59.158Z,100088.78
2022-11-14T09:27:19.844Z,100193.09
2022-11-14T09:32:40.668Z,100203.78
2022-11-14T09:38:20.245Z,100240.53
2022-11-14T09:43:59.287Z,100266.94
2022-11-14T09:49:43.457Z,100140.22
2022-11-14T09:55:20.069Z,100251.75
2022-11-14T10:00:50.918Z,100251.19
2022-11-14T10:06:15.832Z,100251.41
2022-11-14T10:11:40.614Z,100244.41
2022-11-14T10:17:15.244Z,100246.03
2022-11-14T10:22:48.065Z,100247.50
2022-11-14T10:29:04.245Z,100179.06
2022-11-14T10:34:35.110Z,100148.81
2022-11-14T10:40:03.687Z,100238.94
2022-11-14T10:45:28.825Z,100211.63
2022-11-14T10:50:55.118Z,100240.69
2022-11-14T10:56:15.941Z,100186.06
2022-11-14T11:01:45.403Z,100240.88
2022-11-14T11:07:09.191Z,100235.72
2022-11-14T11:12:44.792Z,100048.00
2022-11-14T11:18:26.044Z,100219.72
2022-11-14T11:23:51.331Z,100227.56
2022-11-14T11:29:12.312Z,100221.50
2022-11-14T11:34:33.683Z,100227.56
2022-11-14T11:40:01.572Z,100054.50
2022-11-14T11:45:22.998Z,100081.63
2022-11-14T11:50:44.256Z,100168.09
2022-11-14T11:56:07.578Z,100228.66
2022-11-14T12:01:28.474Z,100086.31
2022-11-14T12:07:09.407Z,100036.34
2022-11-14T12:12:32.898Z,100227.53
2022-11-14T12:18:08.373Z,100222.63
2022-11-14T12:23:51.024Z,100231.00
2022-11-14T12:29:50.354Z,100170.31
2022-11-14T12:35:18.118Z,100147.44
2022-11-14T12:40:41.529Z,100234.53
2022-11-14T12:46:12.137Z,100150.09
2022-11-14T12:51:35.814Z,100240.41
2022-11-14T12:57:00.390Z,100228.16
2022-11-14T13:03:00.582Z,100172.09
2022-11-14T13:08:52.132Z,100228.41
2022-11-14T13:14:31.811Z,100211.63
2022-11-14T13:20:11.502Z,100231.03
2022-11-14T13:25:32.475Z,100154.53
2022-11-14T13:31:25.469Z,100229.72
2022-11-14T13:37:05.139Z,100190.22
2022-11-14T13:42:50.196Z,100236.94
2022-11-14T13:48:53.364Z,100204.28
2022-11-14T13:54:18.032Z,100226.00
2022-11-14T13:59:51.392Z,100228.25
2022-11-14T14:05:24.904Z,100136.94
2022-11-14T14:11:10.137Z,100167.72
2022-11-14T14:16:45.874Z,100224.31
2022-11-14T14:22:25.119Z,100220.88
2022-11-14T14:27:56.434Z,100224.56
2022-11-14T14:33:17.966Z,100097.25
2022-11-14T14:38:39.714Z,100135.91
2022-11-14T14:44:00.935Z,100131.34
2022-11-14T14:49:35.350Z,100122.22
2022-11-14T14:54:56.893Z,100196.63
2022-11-14T15:00:22.100Z,100155.38
2022-11-14T15:05:43.000Z,100151.41
2022-11-14T15:11:04.594Z,100174.97
2022-11-14T15:16:26.440Z,100183.84
2022-11-14T15:22:01.533Z,100136.28
2022-11-14T15:27:22.352Z,100130.75
2022-11-14T15:32:51.584Z,100180.53
2022-11-14T15:43:55.459Z,100116.75
2022-11-14T15:49:20.487Z,100207.34
2022-11-14T15:54:41.896Z,100186.97
2022-11-14T16:00:03.300Z,100138.50
2022-11-14T16:05:29.182Z,100118.06
2022-11-14T16:10:49.889Z,100153.91
2022-11-14T16:16:10.850Z,100156.56
2022-11-14T16:21:32.312Z,100203.63
2022-11-14T16:26:53.025Z,100211.44
2022-11-14T16:32:14.603Z,100205.63
2022-11-14T16:37:35.790Z,100194.47
2022-11-14T16:42:59.008Z,100201.38
2022-11-14T16:48:20.000Z,100119.22
2022-11-14T16:53:40.919Z,100187.06
2022-11-14T16:59:02.018Z,100142.94
2022-11-14T17:04:23.045Z,100185.47
2022-11-14T17:09:44.098Z,100079.44
2022-11-14T17:15:06.047Z,100152.19
2022-11-14T17:20:27.143Z,100061.28
2022-11-14T17:25:48.338Z,100162.56
2022-11-14T17:31:17.731Z,100135.66
2022-11-14T17:36:39.134Z,100060.41
2022-11-14T17:42:00.290Z,100052.72
2022-11-14T17:47:21.550Z,100156.06
2022-11-14T17:52:42.765Z,100118.50
2022-11-14T17:58:03.852Z,100077.59
2022-11-14T18:03:25.674Z,100146.97
2022-11-14T18:08:47.605Z,100078.31
2022-11-14T18:14:08.538Z,100103.25
2022-11-14T18:19:29.480Z,100035.19
2022-11-14T18:24:50.505Z,99985.09
2022-11-14T18:30:39.362Z,100160.16
2022-11-14T18:36:00.892Z,100137.41
2022-11-14T18:41:22.579Z,100115.06
2022-11-14T18:46:43.576Z,100101.06
2022-11-14T18:52:10.317Z,100141.25
2022-11-14T18:57:36.518Z,100114.81
2022-11-14T19:03:00.066Z,100119.16
2022-11-14T19:08:23.188Z,100138.78
2022-11-14T19:13:44.112Z,100020.16
2022-11-14T19:19:06.559Z,99998.66
2022-11-14T19:24:27.254Z,100120.66
2022-11-14T19:29:48.318Z,100016.75
2022-11-14T19:35:09.673Z,100110.81
2022-11-14T19:40:31.178Z,100109.75
2022-11-14T19:45:51.955Z,100097.63
2022-11-14T19:51:14.499Z,100007.44
2022-11-14T19:56:35.064Z,99962.34
2022-11-14T20:01:56.366Z,99945.28
2022-11-14T20:07:17.383Z,100048.28
2022-11-14T20:12:37.847Z,100028.16
2022-11-14T20:17:58.423Z,100112.16
2022-11-14T20:23:19.156Z,100085.66
2022-11-14T20:28:41.082Z,100103.34
2022-11-14T20:34:02.026Z,100081.22
2022-11-14T20:39:23.254Z,100080.91
2022-11-14T20:44:43.943Z,100043.13
2022-11-14T20:50:05.892Z,100009.50
2022-11-14T20:55:26.544Z,100052.22
2022-11-14T21:00:49.866Z,100098.25
2022-11-14T21:06:15.778Z,100030.06
2022-11-14T21:11:36.743Z,100093.91
2022-11-14T21:16:57.646Z,100031.50
2022-11-14T21:22:18.487Z,99973.75
2022-11-14T21:27:39.259Z,100031.75
2022-11-14T21:33:00.091Z,100041.63
2022-11-14T21:38:21.116Z,100073.34
2022-11-14T21:43:42.325Z,100039.44
2022-11-14T21:49:03.333Z,100073.34
2022-11-14T21:54:24.206Z,100084.44
2022-11-14T21:59:45.051Z,100004.34
2022-11-14T22:05:07.260Z,100010.69
2022-11-14T22:10:28.015Z,99928.56
2022-11-14T22:15:48.647Z,99972.56
2022-11-14T22:21:09.683Z,100048.03
2022-11-14T22:26:31.093Z,99981.72
2022-11-14T22:31:53.169Z,100000.00
2022-11-14T22:37:13.856Z,99903.72
2022-11-14T22:42:34.668Z,100028.78
2022-11-14T22:47:58.978Z,100006.44
2022-11-14T22:53:19.597Z,100042.97
2022-11-14T22:58:41.865Z,100045.66
2022-11-14T23:04:05.077Z,100036.06
2022-11-14T23:09:27.431Z,99913.06
2022-11-14T23:14:48.365Z,100053.19
2022-11-14T23:20:15.113Z,100003.66
2022-11-14T23:25:38.138Z,100010.56
2022-11-14T23:30:59.832Z,99965.31
2022-11-14T23:36:20.967Z,99888.38
2022-11-14T23:41:41.757Z,100006.84
2022-11-14T23:47:02.797Z,99890.53
2022-11-14T23:52:23.642Z,99965.19
2022-11-14T23:57:44.496Z,99930.28
